Aérodrome :
LOGIN :

S'inscrire | Disclaimer

   EN    FR    IT 

 










Légende :    VFR   VFR Marginal   IFR   IFR Intensif   IFR Très Intensif
Visi : 
Plafond : 
>= 8 km
>= 3000ft
5 à 8 km
1000 à 3000 ft
1500m à 5 km
500 à 1000 ft
800 à 1500m
200 à 500 ft
< 800m
< 200 ft
Symboles :   Orages  Brouillard  Fortes neiges  Fortes précipitations  Vent > 20 kt
SIGMETs :   Divers  Orages  Givrage  Turbulence  Onde Orograph.  Cendres Volcan.







- Altitude de l'aérodrome : 1187 ft


LIBV - Gioia del Colle Bari

DERNIER METAR :
  • 221655Z 20003KT 8000 FEW015 07/05 Q1001 RMK SCT VIS MIN 8000 WIND THR32 18003KT WIND THR14 22003KT BLU

METARs EXPIRÉS :
  • 221555Z 20007KT 7000 FEW013 09/06 Q1001 RMK BKN SCT200 VIS MIN 7000 WIND THR32 19008KT WIND THR14 20007KT WHT
  • 221455Z 18012KT 7000 FEW010 09/07 Q1001 RMK BKN BKN090 VIS MIN 7000 WIND THR32 19013KT WIND THR14 18012KT WHT

TAF TAF LIBV
Valide du 22 à 18h jusqu'au 23 à 03h UTC


221700Z 2218/2303 21016KT 6000 SCT015 BKN030
Pas de NOTAMs connus pour ce terrain.



MET'MAP, la Météo Aéronautique d'un coup d'oeil ! - Copyright ORBIFLY Décembre 2007 - Disclaimer

ORBIFLY MET'MAP TEAM :

Programmation & Développement : Alexandra Zaïnal
Conception & Développement : Baudouin d'Aumeries
Co-Programmation & Développement : Marc-Olivier Méhu
Soutien technique & logistique : Manuel Goepfert

Contact : metmap@orbifly.com




SOURCES & CREDITS :

   NOAA